createdAt,value
2023-03-08T00:01:23.138Z,85.88
2023-03-08T00:03:55.977Z,86.81
2023-03-08T00:06:25.482Z,91.20
2023-03-08T00:08:57.496Z,89.00
2023-03-08T00:11:25.529Z,88.74
2023-03-08T00:13:53.158Z,89.08
2023-03-08T00:16:20.641Z,88.37
2023-03-08T00:18:48.196Z,89.27
2023-03-08T00:21:18.556Z,94.48
2023-03-08T00:23:46.538Z,93.39
2023-03-08T00:26:14.378Z,91.58
2023-03-08T00:28:42.075Z,91.41
2023-03-08T00:31:13.817Z,92.16
2023-03-08T00:33:41.336Z,91.17
2023-03-08T00:36:17.516Z,93.05
2023-03-08T00:38:46.023Z,94.35
2023-03-08T00:41:16.666Z,94.72
2023-03-08T00:43:44.218Z,94.10
2023-03-08T00:46:12.985Z,99.07
2023-03-08T00:48:41.290Z,100.00
2023-03-08T00:51:12.165Z,100.00
2023-03-08T00:53:39.620Z,100.00
2023-03-08T00:56:07.245Z,97.95
2023-03-08T00:58:37.974Z,98.08
2023-03-08T01:01:06.022Z,98.97
2023-03-08T01:03:33.863Z,99.09
2023-03-08T01:06:10.926Z,99.39
2023-03-08T01:08:40.284Z,98.71
2023-03-08T01:11:14.492Z,98.93
2023-03-08T01:13:41.902Z,98.71
2023-03-08T01:16:18.861Z,99.52
2023-03-08T01:18:46.780Z,99.10
2023-03-08T01:21:14.224Z,99.41
2023-03-08T01:23:42.660Z,98.92
2023-03-08T01:26:20.351Z,98.07
2023-03-08T01:28:48.584Z,98.09
2023-03-08T01:31:25.308Z,98.33
2023-03-08T01:33:55.325Z,99.94
2023-03-08T01:36:25.280Z,100.00
2023-03-08T01:38:53.312Z,100.00
2023-03-08T01:41:27.298Z,100.00
2023-03-08T01:43:55.345Z,100.00
2023-03-08T01:46:30.693Z,100.00
2023-03-08T01:49:23.176Z,100.00
2023-03-08T01:52:04.938Z,98.92
2023-03-08T01:54:48.098Z,99.48
2023-03-08T01:57:22.120Z,100.00
2023-03-08T01:59:53.764Z,99.50
2023-03-08T02:02:28.359Z,99.67
2023-03-08T02:04:56.709Z,99.49
2023-03-08T02:07:24.417Z,100.00
2023-03-08T02:09:52.003Z,100.00
2023-03-08T02:12:20.074Z,100.00
2023-03-08T02:14:48.050Z,100.00
2023-03-08T02:17:15.765Z,100.00
2023-03-08T02:20:02.082Z,100.00
2023-03-08T02:22:29.558Z,100.00
2023-03-08T02:24:56.975Z,100.00
2023-03-08T02:27:27.260Z,100.00
2023-03-08T02:29:54.746Z,100.00
2023-03-08T02:32:23.496Z,100.00
2023-03-08T02:34:51.037Z,100.00
2023-03-08T02:37:18.537Z,100.00
2023-03-08T02:39:49.530Z,98.66
2023-03-08T02:42:17.012Z,98.91
2023-03-08T02:44:44.720Z,99.32
2023-03-08T02:47:12.180Z,100.00
2023-03-08T02:49:39.557Z,100.00
2023-03-08T02:52:07.935Z,100.00
2023-03-08T02:54:35.366Z,100.00
2023-03-08T02:57:02.809Z,100.00
2023-03-08T02:59:32.300Z,100.00
2023-03-08T03:01:59.909Z,100.00
2023-03-08T03:04:33.629Z,100.00
2023-03-08T03:07:01.458Z,100.00
2023-03-08T03:09:30.532Z,99.38
2023-03-08T03:11:59.466Z,99.40
2023-03-08T03:14:28.454Z,99.29
2023-03-08T03:16:56.886Z,99.10
2023-03-08T03:19:24.301Z,99.64
2023-03-08T03:21:51.804Z,100.00
2023-03-08T03:24:19.997Z,100.00
2023-03-08T03:26:54.522Z,100.00
2023-03-08T03:29:24.568Z,100.00
2023-03-08T03:31:58.532Z,100.00
2023-03-08T03:34:26.189Z,100.00
2023-03-08T03:36:53.801Z,100.00
2023-03-08T03:39:21.785Z,100.00
2023-03-08T03:41:49.648Z,100.00
2023-03-08T03:44:17.438Z,100.00
2023-03-08T03:46:47.422Z,100.00
2023-03-08T03:49:18.622Z,100.00
2023-03-08T03:51:48.366Z,100.00
2023-03-08T03:54:22.190Z,100.00
2023-03-08T03:56:49.894Z,100.00
2023-03-08T03:59:20.641Z,100.00
2023-03-08T04:01:48.505Z,100.00
2023-03-08T04:04:24.532Z,100.00
2023-03-08T04:06:53.828Z,100.00
2023-03-08T04:09:25.315Z,100.00
2023-03-08T04:12:05.890Z,100.00
2023-03-08T04:14:34.677Z,100.00
2023-03-08T04:17:03.226Z,100.00
2023-03-08T04:19:38.539Z,100.00
2023-03-08T04:22:07.358Z,100.00
2023-03-08T04:24:42.739Z,100.00
2023-03-08T04:27:15.717Z,100.00
2023-03-08T04:29:43.182Z,100.00
2023-03-08T04:32:10.849Z,99.96
2023-03-08T04:34:44.144Z,100.00
2023-03-08T04:37:14.675Z,100.00
2023-03-08T04:39:47.435Z,100.00
2023-03-08T04:42:17.041Z,100.00
2023-03-08T04:44:45.784Z,100.00
2023-03-08T04:47:15.344Z,100.00
2023-03-08T04:49:45.868Z,100.00
2023-03-08T04:52:13.936Z,100.00
2023-03-08T04:54:43.049Z,100.00
2023-03-08T04:57:30.748Z,100.00
2023-03-08T05:00:00.441Z,100.00
2023-03-08T05:02:28.133Z,100.00
2023-03-08T05:04:55.783Z,100.00
2023-03-08T05:07:23.269Z,100.00
2023-03-08T05:09:52.488Z,100.00
2023-03-08T05:12:20.037Z,100.00
2023-03-08T05:14:53.449Z,100.00
2023-03-08T05:17:21.797Z,99.85
2023-03-08T05:19:50.486Z,100.00
2023-03-08T05:22:22.602Z,100.00
2023-03-08T05:24:52.751Z,99.52
2023-03-08T05:27:21.137Z,99.52
2023-03-08T05:29:48.652Z,97.79
2023-03-08T05:32:16.130Z,98.11
2023-03-08T05:34:43.687Z,97.85
2023-03-08T05:37:16.116Z,99.41
2023-03-08T05:39:45.142Z,98.92
2023-03-08T05:42:19.871Z,97.68
2023-03-08T05:44:47.421Z,97.81
2023-03-08T05:47:19.061Z,96.86
2023-03-08T05:49:46.576Z,96.54
2023-03-08T05:52:14.680Z,96.03
2023-03-08T05:54:42.409Z,95.99
2023-03-08T05:57:15.163Z,97.06
2023-03-08T05:59:43.252Z,98.68
2023-03-08T06:02:16.678Z,99.33
2023-03-08T06:04:48.128Z,97.91
2023-03-08T06:07:18.737Z,97.61
2023-03-08T06:09:51.892Z,97.86
2023-03-08T06:12:19.532Z,97.94
2023-03-08T06:15:13.225Z,98.73
2023-03-08T06:17:42.166Z,96.64
2023-03-08T06:20:12.010Z,95.51
2023-03-08T06:22:45.529Z,94.75
2023-03-08T06:25:13.711Z,94.93
2023-03-08T06:27:41.459Z,95.07
2023-03-08T06:30:17.793Z,95.33
2023-03-08T06:32:45.450Z,95.18
2023-03-08T06:35:13.424Z,95.99
2023-03-08T06:37:47.631Z,98.26
2023-03-08T06:40:16.567Z,96.33
2023-03-08T06:42:43.985Z,96.45
2023-03-08T06:45:14.704Z,95.54
2023-03-08T06:47:44.914Z,96.09
2023-03-08T06:50:13.484Z,94.95
2023-03-08T06:52:43.916Z,94.08
2023-03-08T06:55:12.364Z,93.18
2023-03-08T06:57:40.014Z,95.45
2023-03-08T07:00:09.720Z,98.57
2023-03-08T07:02:37.472Z,98.18
2023-03-08T07:05:05.316Z,100.00
2023-03-08T07:07:33.104Z,100.00
2023-03-08T07:10:00.643Z,97.72
2023-03-08T07:12:28.023Z,100.00
2023-03-08T07:14:55.420Z,98.22
2023-03-08T07:17:22.839Z,98.62
2023-03-08T07:19:50.358Z,98.30
2023-03-08T07:22:17.822Z,96.08
2023-03-08T07:24:49.643Z,91.76
2023-03-08T07:27:17.413Z,91.46
2023-03-08T07:29:44.873Z,91.56
2023-03-08T07:32:12.522Z,91.51
2023-03-08T07:34:40.096Z,91.41
2023-03-08T07:37:16.116Z,91.69
2023-03-08T07:40:01.820Z,90.21
2023-03-08T07:42:29.255Z,88.14
2023-03-08T07:45:02.224Z,84.07
2023-03-08T07:47:29.709Z,79.27
2023-03-08T07:49:57.225Z,73.54
2023-03-08T07:52:31.389Z,70.88
2023-03-08T07:54:58.885Z,66.76
2023-03-08T07:57:26.250Z,64.71
2023-03-08T07:59:54.834Z,64.22
2023-03-08T08:02:22.349Z,63.57
2023-03-08T08:04:50.869Z,63.69
2023-03-08T08:07:18.424Z,63.93
2023-03-08T08:09:45.891Z,64.03
2023-03-08T08:12:13.476Z,61.99
2023-03-08T08:14:40.940Z,59.38
2023-03-08T08:17:08.658Z,58.28
2023-03-08T08:19:37.493Z,59.50
2023-03-08T08:22:05.278Z,57.45
2023-03-08T08:24:32.994Z,55.53
2023-03-08T08:27:00.432Z,60.84
2023-03-08T08:29:28.275Z,56.75
2023-03-08T08:31:57.038Z,53.12
2023-03-08T08:34:24.838Z,50.77
2023-03-08T08:36:52.412Z,50.60
2023-03-08T08:39:19.942Z,49.25
2023-03-08T08:41:49.438Z,55.77
2023-03-08T08:44:18.234Z,56.59
2023-03-08T08:46:45.762Z,60.09
2023-03-08T08:49:13.306Z,56.62
2023-03-08T08:51:40.846Z,54.81
2023-03-08T08:54:08.427Z,52.92
2023-03-08T08:56:42.608Z,54.19
2023-03-08T08:59:12.695Z,55.47
2023-03-08T09:01:43.991Z,56.63
2023-03-08T09:04:13.856Z,53.21
2023-03-08T09:06:41.487Z,53.93
2023-03-08T09:09:09.057Z,57.99
2023-03-08T09:11:48.473Z,55.96
2023-03-08T09:14:21.056Z,55.71
2023-03-08T09:16:48.686Z,53.11
2023-03-08T09:19:16.293Z,56.08
2023-03-08T09:21:43.859Z,65.09
2023-03-08T09:24:11.952Z,64.05
2023-03-08T09:26:39.497Z,61.17
2023-03-08T09:29:07.797Z,58.14
2023-03-08T09:31:37.405Z,57.43
2023-03-08T09:34:09.227Z,56.11
2023-03-08T09:36:39.808Z,58.95
2023-03-08T09:39:13.149Z,57.23
2023-03-08T09:41:53.268Z,53.24
2023-03-08T09:44:45.454Z,57.06
2023-03-08T09:47:33.198Z,55.81
2023-03-08T09:50:12.396Z,57.45
2023-03-08T09:52:52.266Z,58.59
2023-03-08T09:55:30.528Z,55.15
2023-03-08T09:58:14.339Z,58.05
2023-03-08T10:00:41.906Z,59.76
2023-03-08T10:03:31.835Z,60.44
2023-03-08T10:06:19.684Z,59.64
2023-03-08T10:08:57.249Z,60.94
2023-03-08T10:11:34.125Z,62.31
2023-03-08T10:14:17.455Z,58.28
2023-03-08T10:16:50.786Z,56.28
2023-03-08T10:19:27.656Z,55.20
2023-03-08T10:21:57.446Z,58.96
2023-03-08T10:24:34.431Z,55.84
2023-03-08T10:27:16.161Z,55.32
2023-03-08T10:29:51.157Z,53.53
2023-03-08T10:32:18.893Z,50.49
2023-03-08T10:34:46.924Z,52.59
2023-03-08T10:37:15.181Z,50.93
2023-03-08T10:39:54.919Z,49.33
2023-03-08T10:42:28.201Z,50.99
2023-03-08T10:45:15.583Z,47.30
2023-03-08T10:47:58.002Z,49.83
2023-03-08T10:50:31.885Z,47.84
2023-03-08T10:53:09.609Z,52.85
2023-03-08T10:55:46.037Z,52.48
2023-03-08T10:58:37.696Z,50.81
2023-03-08T11:01:24.546Z,49.79
2023-03-08T11:04:04.263Z,52.69
2023-03-08T11:06:35.226Z,54.06
2023-03-08T11:09:04.794Z,53.81
2023-03-08T11:11:42.748Z,56.08
2023-03-08T11:14:12.045Z,53.90
2023-03-08T11:16:45.412Z,55.78
2023-03-08T11:19:36.300Z,56.78
2023-03-08T11:22:22.043Z,58.62
2023-03-08T11:24:56.372Z,57.63
2023-03-08T11:27:32.388Z,59.88
2023-03-08T11:30:12.685Z,59.17
2023-03-08T11:33:25.966Z,57.62
2023-03-08T11:36:34.642Z,57.07
2023-03-08T11:39:34.727Z,54.64
2023-03-08T11:42:23.209Z,55.81
2023-03-08T11:45:06.881Z,57.43
2023-03-08T11:47:38.460Z,56.71
2023-03-08T11:50:26.176Z,58.16
2023-03-08T11:53:13.285Z,54.56
2023-03-08T11:55:59.309Z,56.17
2023-03-08T11:58:55.797Z,57.31
2023-03-08T12:01:27.187Z,57.45
2023-03-08T12:04:03.191Z,55.87
2023-03-08T12:06:38.415Z,57.65
2023-03-08T12:09:12.502Z,57.17
2023-03-08T12:12:06.769Z,56.23
2023-03-08T12:14:47.089Z,55.34
2023-03-08T12:17:25.885Z,57.82
2023-03-08T12:19:54.067Z,56.06
2023-03-08T12:22:31.255Z,56.20
2023-03-08T12:25:16.734Z,56.04
2023-03-08T12:27:50.605Z,56.54
2023-03-08T12:30:18.166Z,57.07
2023-03-08T12:32:47.538Z,57.50
2023-03-08T12:35:21.057Z,55.13
2023-03-08T12:38:26.889Z,55.46
2023-03-08T12:40:55.501Z,56.00
2023-03-08T12:43:22.909Z,57.20
2023-03-08T12:45:59.253Z,56.24
2023-03-08T12:48:31.085Z,59.22
2023-03-08T12:51:14.203Z,59.00
2023-03-08T12:53:50.432Z,58.84
2023-03-08T12:56:43.862Z,57.49
2023-03-08T12:59:11.242Z,58.60
2023-03-08T13:01:44.400Z,55.44
2023-03-08T13:04:38.603Z,56.81
2023-03-08T13:07:09.822Z,58.42
2023-03-08T13:09:43.198Z,56.60
2023-03-08T13:12:16.415Z,56.78
2023-03-08T13:14:46.877Z,56.58
2023-03-08T13:17:36.949Z,55.72
2023-03-08T13:20:11.859Z,55.95
2023-03-08T13:22:57.946Z,57.32
2023-03-08T13:25:39.464Z,55.70
2023-03-08T13:28:11.716Z,55.30
2023-03-08T13:30:49.706Z,55.70
2023-03-08T13:33:26.672Z,55.84
2023-03-08T13:36:02.492Z,55.52
2023-03-08T13:38:38.054Z,53.87
2023-03-08T13:41:05.572Z,54.39
2023-03-08T13:43:35.231Z,57.42
2023-03-08T13:46:10.342Z,56.83
2023-03-08T13:48:38.302Z,54.74
2023-03-08T13:51:06.403Z,55.01
2023-03-08T13:53:36.868Z,54.73
2023-03-08T13:56:06.290Z,56.44
2023-03-08T13:58:40.306Z,55.74
2023-03-08T14:01:17.417Z,55.21
2023-03-08T14:03:46.778Z,55.95
2023-03-08T14:06:26.144Z,55.79
2023-03-08T14:08:59.506Z,55.89
2023-03-08T14:11:32.006Z,54.73
2023-03-08T14:14:02.635Z,55.34
2023-03-08T14:16:44.402Z,54.17
2023-03-08T14:19:14.838Z,55.51
2023-03-08T14:21:52.627Z,54.73
2023-03-08T14:24:25.476Z,56.41
2023-03-08T14:27:04.243Z,55.84
2023-03-08T14:29:37.016Z,55.47
2023-03-08T14:32:10.478Z,56.07
2023-03-08T14:34:42.825Z,56.55
2023-03-08T14:37:29.910Z,57.16
2023-03-08T14:40:20.347Z,56.92
2023-03-08T14:42:51.912Z,56.58
2023-03-08T14:45:36.731Z,56.98
2023-03-08T14:49:20.893Z,57.86
2023-03-08T14:51:54.619Z,57.89
2023-03-08T14:54:34.081Z,59.31
2023-03-08T14:57:18.021Z,58.36
2023-03-08T14:59:50.043Z,58.54
2023-03-08T15:02:18.446Z,58.60
2023-03-08T15:04:51.604Z,58.73
2023-03-08T15:07:36.537Z,58.79
2023-03-08T15:10:12.132Z,59.80
2023-03-08T15:17:35.290Z,58.80
2023-03-08T15:28:38.184Z,59.18
2023-03-08T17:10:03.322Z,67.64
2023-03-08T17:13:36.170Z,68.62
2023-03-08T17:16:19.671Z,69.69
2023-03-08T17:19:23.749Z,69.83
2023-03-08T17:22:37.962Z,70.07
2023-03-08T17:29:35.304Z,71.36
2023-03-08T20:20:42.797Z,79.89
2023-03-08T20:23:20.674Z,80.63
2023-03-08T20:27:18.953Z,81.03
2023-03-08T20:29:24.977Z,80.03
2023-03-08T20:32:09.749Z,80.06
2023-03-08T20:36:14.234Z,79.92
2023-03-08T20:39:00.433Z,81.33
2023-03-08T20:41:50.783Z,79.53
2023-03-08T22:09:55.677Z,84.40
2023-03-08T22:12:54.416Z,85.19
2023-03-08T22:15:46.711Z,83.84
2023-03-08T22:20:28.802Z,84.93
2023-03-08T22:22:19.305Z,84.30
2023-03-08T22:25:07.489Z,83.46
2023-03-08T22:27:39.351Z,84.85
2023-03-08T22:30:12.165Z,85.95
2023-03-08T22:32:50.771Z,85.70
2023-03-08T22:35:18.566Z,86.12
2023-03-08T22:37:46.658Z,85.56
2023-03-08T22:40:14.808Z,85.38
2023-03-08T22:42:42.591Z,85.95
2023-03-08T22:45:10.478Z,86.04
2023-03-08T22:47:38.178Z,87.20
2023-03-08T22:50:08.956Z,88.19
2023-03-08T22:52:39.505Z,89.10
2023-03-08T22:55:07.533Z,90.05
2023-03-08T22:57:40.583Z,88.88
2023-03-08T23:00:14.460Z,88.32
2023-03-08T23:02:44.384Z,90.53
2023-03-08T23:05:14.253Z,89.96
2023-03-08T23:07:41.842Z,90.34
2023-03-08T23:10:11.455Z,89.52
2023-03-08T23:12:41.137Z,87.71
2023-03-08T23:15:09.494Z,85.55
2023-03-08T23:17:37.171Z,85.27
2023-03-08T23:20:05.853Z,83.82
2023-03-08T23:22:33.510Z,84.53
2023-03-08T23:25:01.236Z,85.44
2023-03-08T23:27:28.917Z,85.40
2023-03-08T23:29:57.615Z,84.25
2023-03-08T23:32:25.290Z,83.13
2023-03-08T23:34:53.979Z,83.70
2023-03-08T23:37:21.541Z,81.44
2023-03-08T23:39:50.193Z,81.21
2023-03-08T23:42:17.771Z,81.63
2023-03-08T23:44:45.442Z,81.95
2023-03-08T23:47:14.149Z,81.96
2023-03-08T23:49:41.793Z,84.07
2023-03-08T23:52:09.458Z,84.39
2023-03-08T23:54:37.064Z,82.83
2023-03-08T23:57:04.658Z,82.00
2023-03-08T23:59:32.239Z,83.44
